sensor_id;sensor_type;location;lat;lon;timestamp;P1;durP1;ratioP1;P2;durP2;ratioP2
11211;SDS011;5663;50.864;12.096;2023-06-04T00:02:09;4.00;;;2.00;;
11211;SDS011;5663;50.864;12.096;2023-06-04T00:04:44;2.80;;;1.90;;
11211;SDS011;5663;50.864;12.096;2023-06-04T00:07:32;4.07;;;2.03;;
11211;SDS011;5663;50.864;12.096;2023-06-04T00:10:13;3.23;;;2.30;;
11211;SDS011;5663;50.864;12.096;2023-06-04T00:12:50;3.63;;;2.30;;
11211;SDS011;5663;50.864;12.096;2023-06-04T00:15:28;3.30;;;2.60;;
11211;SDS011;5663;50.864;12.096;2023-06-04T00:18:08;4.27;;;2.50;;
11211;SDS011;5663;50.864;12.096;2023-06-04T00:20:49;3.47;;;2.10;;
11211;SDS011;5663;50.864;12.096;2023-06-04T00:23:23;3.67;;;2.80;;
11211;SDS011;5663;50.864;12.096;2023-06-04T00:26:00;2.60;;;2.20;;
11211;SDS011;5663;50.864;12.096;2023-06-04T00:28:36;2.40;;;2.20;;
11211;SDS011;5663;50.864;12.096;2023-06-04T00:31:13;3.90;;;2.43;;
11211;SDS011;5663;50.864;12.096;2023-06-04T00:33:47;6.30;;;2.77;;
11211;SDS011;5663;50.864;12.096;2023-06-04T00:36:28;5.50;;;2.73;;
11211;SDS011;5663;50.864;12.096;2023-06-04T00:39:04;5.83;;;2.60;;
11211;SDS011;5663;50.864;12.096;2023-06-04T00:41:36;6.73;;;2.57;;
11211;SDS011;5663;50.864;12.096;2023-06-04T00:44:08;4.60;;;2.67;;
11211;SDS011;5663;50.864;12.096;2023-06-04T00:46:47;3.30;;;2.30;;
11211;SDS011;5663;50.864;12.096;2023-06-04T00:49:23;4.47;;;2.73;;
11211;SDS011;5663;50.864;12.096;2023-06-04T00:51:58;5.07;;;2.63;;
11211;SDS011;5663;50.864;12.096;2023-06-04T00:54:37;4.90;;;2.73;;
11211;SDS011;5663;50.864;12.096;2023-06-04T00:57:12;3.20;;;2.57;;
11211;SDS011;5663;50.864;12.096;2023-06-04T00:59:43;4.33;;;3.10;;
11211;SDS011;5663;50.864;12.096;2023-06-04T01:02:19;4.57;;;2.67;;
11211;SDS011;5663;50.864;12.096;2023-06-04T01:05:03;7.17;;;3.13;;
11211;SDS011;5663;50.864;12.096;2023-06-04T01:07:48;4.43;;;2.97;;
11211;SDS011;5663;50.864;12.096;2023-06-04T01:10:23;4.33;;;2.70;;
11211;SDS011;5663;50.864;12.096;2023-06-04T01:12:58;5.97;;;2.53;;
11211;SDS011;5663;50.864;12.096;2023-06-04T01:15:31;3.57;;;2.77;;
11211;SDS011;5663;50.864;12.096;2023-06-04T01:18:05;5.40;;;3.10;;
11211;SDS011;5663;50.864;12.096;2023-06-04T01:20:47;6.20;;;3.03;;
11211;SDS011;5663;50.864;12.096;2023-06-04T01:23:30;2.90;;;2.30;;
11211;SDS011;5663;50.864;12.096;2023-06-04T01:26:11;3.50;;;2.63;;
11211;SDS011;5663;50.864;12.096;2023-06-04T01:28:46;6.10;;;2.80;;
11211;SDS011;5663;50.864;12.096;2023-06-04T01:31:23;3.07;;;2.67;;
11211;SDS011;5663;50.864;12.096;2023-06-04T01:34:02;5.30;;;2.80;;
11211;SDS011;5663;50.864;12.096;2023-06-04T01:36:36;4.07;;;2.80;;
11211;SDS011;5663;50.864;12.096;2023-06-04T01:39:12;2.93;;;2.43;;
11211;SDS011;5663;50.864;12.096;2023-06-04T01:41:45;3.33;;;2.53;;
11211;SDS011;5663;50.864;12.096;2023-06-04T01:44:19;5.67;;;3.03;;
11211;SDS011;5663;50.864;12.096;2023-06-04T01:46:51;3.63;;;2.70;;
11211;SDS011;5663;50.864;12.096;2023-06-04T01:49:34;4.23;;;2.90;;
11211;SDS011;5663;50.864;12.096;2023-06-04T01:52:10;4.20;;;2.77;;
11211;SDS011;5663;50.864;12.096;2023-06-04T01:54:47;4.17;;;2.70;;
11211;SDS011;5663;50.864;12.096;2023-06-04T01:57:26;3.83;;;2.77;;
11211;SDS011;5663;50.864;12.096;2023-06-04T02:00:04;4.30;;;3.00;;
11211;SDS011;5663;50.864;12.096;2023-06-04T02:02:46;3.47;;;2.83;;
11211;SDS011;5663;50.864;12.096;2023-06-04T02:05:27;3.90;;;2.77;;
11211;SDS011;5663;50.864;12.096;2023-06-04T02:08:06;4.43;;;3.00;;
11211;SDS011;5663;50.864;12.096;2023-06-04T02:10:44;4.00;;;2.77;;
11211;SDS011;5663;50.864;12.096;2023-06-04T02:13:23;3.03;;;2.57;;
11211;SDS011;5663;50.864;12.096;2023-06-04T02:15:58;4.27;;;3.00;;
11211;SDS011;5663;50.864;12.096;2023-06-04T02:18:31;3.37;;;2.80;;
11211;SDS011;5663;50.864;12.096;2023-06-04T02:21:04;5.47;;;2.83;;
11211;SDS011;5663;50.864;12.096;2023-06-04T02:23:36;4.30;;;2.90;;
11211;SDS011;5663;50.864;12.096;2023-06-04T02:26:13;4.33;;;2.90;;
11211;SDS011;5663;50.864;12.096;2023-06-04T02:28:48;5.83;;;3.40;;
11211;SDS011;5663;50.864;12.096;2023-06-04T02:31:22;3.23;;;2.83;;
11211;SDS011;5663;50.864;12.096;2023-06-04T02:34:03;5.73;;;3.30;;
11211;SDS011;5663;50.864;12.096;2023-06-04T02:36:40;3.27;;;2.93;;
11211;SDS011;5663;50.864;12.096;2023-06-04T02:39:23;5.93;;;3.17;;
11211;SDS011;5663;50.864;12.096;2023-06-04T02:42:12;3.03;;;2.73;;
11211;SDS011;5663;50.864;12.096;2023-06-04T02:44:45;5.83;;;2.90;;
11211;SDS011;5663;50.864;12.096;2023-06-04T02:47:18;5.80;;;2.97;;
11211;SDS011;5663;50.864;12.096;2023-06-04T02:49:51;5.53;;;3.10;;
11211;SDS011;5663;50.864;12.096;2023-06-04T02:52:31;4.43;;;3.17;;
11211;SDS011;5663;50.864;12.096;2023-06-04T02:55:15;4.60;;;2.57;;
11211;SDS011;5663;50.864;12.096;2023-06-04T02:57:54;4.17;;;3.00;;
11211;SDS011;5663;50.864;12.096;2023-06-04T03:00:32;3.97;;;3.40;;
11211;SDS011;5663;50.864;12.096;2023-06-04T03:03:14;5.70;;;3.20;;
11211;SDS011;5663;50.864;12.096;2023-06-04T03:05:50;3.70;;;3.03;;
11211;SDS011;5663;50.864;12.096;2023-06-04T03:08:30;4.80;;;2.93;;
11211;SDS011;5663;50.864;12.096;2023-06-04T03:11:05;4.00;;;3.40;;
11211;SDS011;5663;50.864;12.096;2023-06-04T03:13:49;10.87;;;3.23;;
11211;SDS011;5663;50.864;12.096;2023-06-04T03:16:27;3.87;;;2.93;;
11211;SDS011;5663;50.864;12.096;2023-06-04T03:19:05;4.40;;;3.23;;
11211;SDS011;5663;50.864;12.096;2023-06-04T03:21:37;3.83;;;3.43;;
11211;SDS011;5663;50.864;12.096;2023-06-04T03:24:14;4.00;;;3.10;;
11211;SDS011;5663;50.864;12.096;2023-06-04T03:26:51;6.73;;;4.07;;
11211;SDS011;5663;50.864;12.096;2023-06-04T03:29:29;5.73;;;3.70;;
11211;SDS011;5663;50.864;12.096;2023-06-04T03:32:10;4.40;;;3.27;;
11211;SDS011;5663;50.864;12.096;2023-06-04T03:34:49;5.03;;;3.50;;
11211;SDS011;5663;50.864;12.096;2023-06-04T03:37:21;4.37;;;3.33;;
11211;SDS011;5663;50.864;12.096;2023-06-04T03:39:57;6.77;;;3.80;;
11211;SDS011;5663;50.864;12.096;2023-06-04T03:42:32;4.40;;;3.50;;
11211;SDS011;5663;50.864;12.096;2023-06-04T03:45:08;4.93;;;2.90;;
11211;SDS011;5663;50.864;12.096;2023-06-04T03:47:39;4.83;;;3.30;;
11211;SDS011;5663;50.864;12.096;2023-06-04T03:50:14;6.13;;;3.40;;
11211;SDS011;5663;50.864;12.096;2023-06-04T03:52:44;4.53;;;3.23;;
11211;SDS011;5663;50.864;12.096;2023-06-04T03:55:16;5.73;;;3.43;;
11211;SDS011;5663;50.864;12.096;2023-06-04T03:57:47;4.10;;;3.23;;
11211;SDS011;5663;50.864;12.096;2023-06-04T04:00:26;4.83;;;3.30;;
11211;SDS011;5663;50.864;12.096;2023-06-04T04:03:03;6.17;;;3.57;;
11211;SDS011;5663;50.864;12.096;2023-06-04T04:05:41;6.67;;;3.50;;
11211;SDS011;5663;50.864;12.096;2023-06-04T04:08:27;6.70;;;3.37;;
11211;SDS011;5663;50.864;12.096;2023-06-04T04:11:05;4.63;;;3.50;;
11211;SDS011;5663;50.864;12.096;2023-06-04T04:13:40;5.23;;;3.50;;
11211;SDS011;5663;50.864;12.096;2023-06-04T04:16:11;5.17;;;3.20;;
11211;SDS011;5663;50.864;12.096;2023-06-04T04:18:46;8.33;;;3.67;;
11211;SDS011;5663;50.864;12.096;2023-06-04T04:21:20;4.53;;;3.60;;
11211;SDS011;5663;50.864;12.096;2023-06-04T04:23:56;6.23;;;3.37;;
11211;SDS011;5663;50.864;12.096;2023-06-04T04:26:34;5.13;;;3.50;;
11211;SDS011;5663;50.864;12.096;2023-06-04T04:29:14;4.27;;;3.30;;
11211;SDS011;5663;50.864;12.096;2023-06-04T04:31:49;4.13;;;3.20;;
11211;SDS011;5663;50.864;12.096;2023-06-04T04:34:26;4.67;;;3.23;;
11211;SDS011;5663;50.864;12.096;2023-06-04T04:37:04;3.27;;;2.97;;
11211;SDS011;5663;50.864;12.096;2023-06-04T04:39:42;5.17;;;3.40;;
11211;SDS011;5663;50.864;12.096;2023-06-04T04:42:14;8.00;;;3.63;;
11211;SDS011;5663;50.864;12.096;2023-06-04T04:44:49;5.93;;;3.80;;
11211;SDS011;5663;50.864;12.096;2023-06-04T04:47:22;3.97;;;3.10;;
11211;SDS011;5663;50.864;12.096;2023-06-04T04:49:55;3.70;;;3.00;;
11211;SDS011;5663;50.864;12.096;2023-06-04T04:52:37;4.60;;;3.33;;
11211;SDS011;5663;50.864;12.096;2023-06-04T04:55:14;5.77;;;3.50;;
11211;SDS011;5663;50.864;12.096;2023-06-04T04:57:51;5.73;;;3.80;;
11211;SDS011;5663;50.864;12.096;2023-06-04T05:00:31;6.37;;;3.97;;
11211;SDS011;5663;50.864;12.096;2023-06-04T05:03:04;5.13;;;3.20;;
11211;SDS011;5663;50.864;12.096;2023-06-04T05:05:44;6.53;;;3.80;;
11211;SDS011;5663;50.864;12.096;2023-06-04T05:11:13;4.97;;;3.80;;
11211;SDS011;5663;50.864;12.096;2023-06-04T05:13:50;5.73;;;3.70;;
11211;SDS011;5663;50.864;12.096;2023-06-04T05:16:35;9.43;;;4.00;;
11211;SDS011;5663;50.864;12.096;2023-06-04T05:19:23;3.97;;;3.60;;
11211;SDS011;5663;50.864;12.096;2023-06-04T05:22:00;5.40;;;3.73;;
11211;SDS011;5663;50.864;12.096;2023-06-04T05:24:51;4.83;;;3.40;;
11211;SDS011;5663;50.864;12.096;2023-06-04T05:27:52;4.40;;;3.57;;
11211;SDS011;5663;50.864;12.096;2023-06-04T05:30:33;4.83;;;3.07;;
11211;SDS011;5663;50.864;12.096;2023-06-04T05:33:08;6.60;;;3.33;;
11211;SDS011;5663;50.864;12.096;2023-06-04T05:35:51;3.50;;;3.20;;
11211;SDS011;5663;50.864;12.096;2023-06-04T05:38:34;5.80;;;3.10;;
11211;SDS011;5663;50.864;12.096;2023-06-04T05:41:17;5.03;;;3.20;;
11211;SDS011;5663;50.864;12.096;2023-06-04T05:43:57;4.77;;;3.07;;
11211;SDS011;5663;50.864;12.096;2023-06-04T05:46:30;3.37;;;2.93;;
11211;SDS011;5663;50.864;12.096;2023-06-04T05:49:03;2.90;;;2.60;;
11211;SDS011;5663;50.864;12.096;2023-06-04T05:51:36;3.87;;;3.07;;
11211;SDS011;5663;50.864;12.096;2023-06-04T05:54:13;4.13;;;3.07;;
11211;SDS011;5663;50.864;12.096;2023-06-04T05:56:50;5.00;;;2.90;;
11211;SDS011;5663;50.864;12.096;2023-06-04T05:59:30;4.83;;;3.00;;
11211;SDS011;5663;50.864;12.096;2023-06-04T06:02:03;4.17;;;2.67;;
11211;SDS011;5663;50.864;12.096;2023-06-04T06:04:36;7.20;;;3.60;;
11211;SDS011;5663;50.864;12.096;2023-06-04T06:07:21;4.77;;;2.70;;
11211;SDS011;5663;50.864;12.096;2023-06-04T06:09:58;4.73;;;2.90;;
11211;SDS011;5663;50.864;12.096;2023-06-04T06:12:34;3.90;;;2.80;;
11211;SDS011;5663;50.864;12.096;2023-06-04T06:15:10;4.47;;;3.13;;
11211;SDS011;5663;50.864;12.096;2023-06-04T06:17:45;4.37;;;2.97;;
11211;SDS011;5663;50.864;12.096;2023-06-04T06:20:26;5.53;;;3.20;;
11211;SDS011;5663;50.864;12.096;2023-06-04T06:23:08;6.93;;;3.20;;
11211;SDS011;5663;50.864;12.096;2023-06-04T06:25:45;3.57;;;3.20;;
11211;SDS011;5663;50.864;12.096;2023-06-04T06:28:38;4.47;;;3.13;;
11211;SDS011;5663;50.864;12.096;2023-06-04T06:31:34;4.70;;;3.10;;
11211;SDS011;5663;50.864;12.096;2023-06-04T06:34:13;4.23;;;2.83;;
11211;SDS011;5663;50.864;12.096;2023-06-04T06:36:53;5.50;;;3.03;;
11211;SDS011;5663;50.864;12.096;2023-06-04T06:39:42;3.83;;;2.63;;
11211;SDS011;5663;50.864;12.096;2023-06-04T06:42:23;4.63;;;3.00;;
11211;SDS011;5663;50.864;12.096;2023-06-04T06:44:58;5.10;;;3.23;;
11211;SDS011;5663;50.864;12.096;2023-06-04T06:47:33;5.60;;;3.20;;
11211;SDS011;5663;50.864;12.096;2023-06-04T06:50:17;5.47;;;3.00;;
11211;SDS011;5663;50.864;12.096;2023-06-04T06:53:02;4.33;;;3.03;;
11211;SDS011;5663;50.864;12.096;2023-06-04T06:55:41;4.67;;;2.83;;
11211;SDS011;5663;50.864;12.096;2023-06-04T06:58:19;3.47;;;2.67;;
11211;SDS011;5663;50.864;12.096;2023-06-04T07:01:04;6.73;;;3.23;;
11211;SDS011;5663;50.864;12.096;2023-06-04T07:04:05;6.03;;;2.50;;
11211;SDS011;5663;50.864;12.096;2023-06-04T07:06:46;3.93;;;2.57;;
11211;SDS011;5663;50.864;12.096;2023-06-04T07:09:29;3.70;;;2.67;;
11211;SDS011;5663;50.864;12.096;2023-06-04T07:12:19;5.97;;;2.57;;
11211;SDS011;5663;50.864;12.096;2023-06-04T07:14:58;3.83;;;2.47;;
11211;SDS011;5663;50.864;12.096;2023-06-04T07:17:37;3.97;;;2.60;;
11211;SDS011;5663;50.864;12.096;2023-06-04T07:20:30;5.47;;;2.50;;
11211;SDS011;5663;50.864;12.096;2023-06-04T07:23:05;4.73;;;2.80;;
11211;SDS011;5663;50.864;12.096;2023-06-04T07:26:01;4.00;;;2.30;;
11211;SDS011;5663;50.864;12.096;2023-06-04T07:28:38;3.43;;;2.40;;
11211;SDS011;5663;50.864;12.096;2023-06-04T07:31:15;4.67;;;2.37;;
11211;SDS011;5663;50.864;12.096;2023-06-04T07:34:00;3.40;;;2.17;;
11211;SDS011;5663;50.864;12.096;2023-06-04T07:36:47;3.20;;;2.20;;
11211;SDS011;5663;50.864;12.096;2023-06-04T07:39:24;3.00;;;2.10;;
11211;SDS011;5663;50.864;12.096;2023-06-04T07:42:05;4.00;;;2.30;;
11211;SDS011;5663;50.864;12.096;2023-06-04T07:44:50;3.30;;;2.10;;
11211;SDS011;5663;50.864;12.096;2023-06-04T07:47:22;5.47;;;2.20;;
11211;SDS011;5663;50.864;12.096;2023-06-04T07:50:15;9.37;;;2.13;;
11211;SDS011;5663;50.864;12.096;2023-06-04T07:52:59;2.67;;;1.97;;
11211;SDS011;5663;50.864;12.096;2023-06-04T07:56:59;2.27;;;1.70;;
11211;SDS011;5663;50.864;12.096;2023-06-04T07:58:41;2.07;;;1.57;;
11211;SDS011;5663;50.864;12.096;2023-06-04T08:01:44;3.27;;;1.70;;
11211;SDS011;5663;50.864;12.096;2023-06-04T08:04:17;4.50;;;1.90;;
11211;SDS011;5663;50.864;12.096;2023-06-04T08:07:03;2.03;;;1.70;;
11211;SDS011;5663;50.864;12.096;2023-06-04T08:09:51;1.97;;;1.77;;
11211;SDS011;5663;50.864;12.096;2023-06-04T08:12:33;4.53;;;1.60;;
11211;SDS011;5663;50.864;12.096;2023-06-04T08:15:17;3.57;;;1.90;;
11211;SDS011;5663;50.864;12.096;2023-06-04T08:18:31;3.30;;;1.80;;
11211;SDS011;5663;50.864;12.096;2023-06-04T08:21:24;8.77;;;1.87;;
11211;SDS011;5663;50.864;12.096;2023-06-04T08:24:04;4.53;;;1.93;;
11211;SDS011;5663;50.864;12.096;2023-06-04T08:26:47;3.00;;;1.70;;
11211;SDS011;5663;50.864;12.096;2023-06-04T08:29:37;3.57;;;1.70;;
11211;SDS011;5663;50.864;12.096;2023-06-04T08:32:22;2.93;;;1.80;;
11211;SDS011;5663;50.864;12.096;2023-06-04T08:34:59;3.53;;;1.90;;
11211;SDS011;5663;50.864;12.096;2023-06-04T08:37:33;2.13;;;1.60;;
11211;SDS011;5663;50.864;12.096;2023-06-04T08:40:13;2.50;;;1.67;;
11211;SDS011;5663;50.864;12.096;2023-06-04T08:43:01;4.17;;;1.93;;
11211;SDS011;5663;50.864;12.096;2023-06-04T08:45:48;5.30;;;2.00;;
11211;SDS011;5663;50.864;12.096;2023-06-04T08:48:29;3.47;;;1.70;;
11211;SDS011;5663;50.864;12.096;2023-06-04T08:51:20;2.50;;;1.70;;
11211;SDS011;5663;50.864;12.096;2023-06-04T08:54:40;2.33;;;1.73;;
11211;SDS011;5663;50.864;12.096;2023-06-04T08:57:34;2.87;;;1.80;;
11211;SDS011;5663;50.864;12.096;2023-06-04T09:00:37;6.90;;;1.60;;
11211;SDS011;5663;50.864;12.096;2023-06-04T09:03:09;4.00;;;1.70;;
11211;SDS011;5663;50.864;12.096;2023-06-04T09:09:15;3.50;;;1.40;;
11211;SDS011;5663;50.864;12.096;2023-06-04T09:12:21;1.80;;;1.40;;
11211;SDS011;5663;50.864;12.096;2023-06-04T09:15:08;2.73;;;1.60;;
11211;SDS011;5663;50.864;12.096;2023-06-04T09:17:41;3.20;;;1.53;;
11211;SDS011;5663;50.864;12.096;2023-06-04T09:20:22;1.90;;;1.50;;
11211;SDS011;5663;50.864;12.096;2023-06-04T09:23:31;3.83;;;1.52;;
11211;SDS011;5663;50.864;12.096;2023-06-04T09:29:48;2.85;;;1.70;;
11211;SDS011;5663;50.864;12.096;2023-06-04T09:35:56;3.30;;;1.70;;
11211;SDS011;5663;50.864;12.096;2023-06-04T09:38:38;6.90;;;1.65;;
11211;SDS011;5663;50.864;12.096;2023-06-04T09:41:44;1.80;;;1.70;;
11211;SDS011;5663;50.864;12.096;2023-06-04T09:49:01;4.85;;;1.60;;
11211;SDS011;5663;50.864;12.096;2023-06-04T09:55:43;2.47;;;1.50;;
11211;SDS011;5663;50.864;12.096;2023-06-04T10:01:50;3.25;;;1.73;;
11211;SDS011;5663;50.864;12.096;2023-06-04T10:04:30;2.03;;;1.60;;
11211;SDS011;5663;50.864;12.096;2023-06-04T10:07:37;2.85;;;1.60;;
11211;SDS011;5663;50.864;12.096;2023-06-04T10:10:19;2.33;;;1.58;;
11211;SDS011;5663;50.864;12.096;2023-06-04T10:13:17;3.95;;;1.65;;
11211;SDS011;5663;50.864;12.096;2023-06-04T10:16:05;1.83;;;1.30;;
11211;SDS011;5663;50.864;12.096;2023-06-04T10:18:52;1.45;;;1.35;;
11211;SDS011;5663;50.864;12.096;2023-06-04T10:21:54;2.47;;;1.50;;
11211;SDS011;5663;50.864;12.096;2023-06-04T10:24:40;1.75;;;1.45;;
11211;SDS011;5663;50.864;12.096;2023-06-04T10:27:45;3.13;;;1.80;;
11211;SDS011;5663;50.864;12.096;2023-06-04T10:31:04;4.53;;;1.60;;
11211;SDS011;5663;50.864;12.096;2023-06-04T10:34:01;3.85;;;1.70;;
11211;SDS011;5663;50.864;12.096;2023-06-04T10:36:42;3.08;;;1.60;;
11211;SDS011;5663;50.864;12.096;2023-06-04T10:39:25;4.18;;;1.75;;
11211;SDS011;5663;50.864;12.096;2023-06-04T10:42:10;2.33;;;1.50;;
11211;SDS011;5663;50.864;12.096;2023-06-04T10:44:44;2.05;;;1.60;;
11211;SDS011;5663;50.864;12.096;2023-06-04T10:47:30;3.03;;;1.45;;
11211;SDS011;5663;50.864;12.096;2023-06-04T10:50:09;5.35;;;1.60;;
11211;SDS011;5663;50.864;12.096;2023-06-04T10:52:57;2.10;;;1.40;;
11211;SDS011;5663;50.864;12.096;2023-06-04T10:55:51;1.92;;;1.38;;
11211;SDS011;5663;50.864;12.096;2023-06-04T10:58:31;2.53;;;1.42;;
11211;SDS011;5663;50.864;12.096;2023-06-04T11:01:07;1.85;;;1.40;;
11211;SDS011;5663;50.864;12.096;2023-06-04T11:04:00;6.40;;;1.50;;
11211;SDS011;5663;50.864;12.096;2023-06-04T11:06:44;1.70;;;1.50;;
11211;SDS011;5663;50.864;12.096;2023-06-04T11:09:18;2.08;;;1.40;;
11211;SDS011;5663;50.864;12.096;2023-06-04T11:11:56;2.70;;;1.40;;
11211;SDS011;5663;50.864;12.096;2023-06-04T11:15:05;2.03;;;1.67;;
11211;SDS011;5663;50.864;12.096;2023-06-04T11:17:32;1.60;;;1.50;;
11211;SDS011;5663;50.864;12.096;2023-06-04T11:20:24;2.03;;;1.58;;
11211;SDS011;5663;50.864;12.096;2023-06-04T11:23:15;1.50;;;1.40;;
11211;SDS011;5663;50.864;12.096;2023-06-04T11:25:54;2.33;;;1.60;;
11211;SDS011;5663;50.864;12.096;2023-06-04T11:28:42;1.65;;;1.20;;
11211;SDS011;5663;50.864;12.096;2023-06-04T11:31:24;1.40;;;1.30;;
11211;SDS011;5663;50.864;12.096;2023-06-04T11:33:58;1.75;;;1.60;;
11211;SDS011;5663;50.864;12.096;2023-06-04T11:36:40;2.17;;;1.77;;
11211;SDS011;5663;50.864;12.096;2023-06-04T11:39:17;2.42;;;1.42;;
11211;SDS011;5663;50.864;12.096;2023-06-04T11:42:06;2.78;;;1.45;;
11211;SDS011;5663;50.864;12.096;2023-06-04T11:44:55;2.72;;;1.38;;
11211;SDS011;5663;50.864;12.096;2023-06-04T11:47:39;2.75;;;1.30;;
11211;SDS011;5663;50.864;12.096;2023-06-04T11:50:14;1.85;;;1.60;;
11211;SDS011;5663;50.864;12.096;2023-06-04T11:52:52;1.55;;;1.40;;
11211;SDS011;5663;50.864;12.096;2023-06-04T11:55:33;3.97;;;1.33;;
11211;SDS011;5663;50.864;12.096;2023-06-04T11:58:13;1.50;;;1.40;;
11211;SDS011;5663;50.864;12.096;2023-06-04T12:00:55;2.17;;;1.60;;
11211;SDS011;5663;50.864;12.096;2023-06-04T12:03:34;2.10;;;1.40;;
11211;SDS011;5663;50.864;12.096;2023-06-04T12:06:12;3.83;;;1.58;;
11211;SDS011;5663;50.864;12.096;2023-06-04T12:09:00;3.50;;;1.40;;
11211;SDS011;5663;50.864;12.096;2023-06-04T12:11:47;2.30;;;1.50;;
11211;SDS011;5663;50.864;12.096;2023-06-04T12:14:21;1.67;;;1.25;;
11211;SDS011;5663;50.864;12.096;2023-06-04T12:16:56;2.30;;;1.60;;
11211;SDS011;5663;50.864;12.096;2023-06-04T12:19:46;16.85;;;2.40;;
11211;SDS011;5663;50.864;12.096;2023-06-04T12:22:29;2.67;;;1.52;;
11211;SDS011;5663;50.864;12.096;2023-06-04T12:25:06;1.55;;;1.45;;
11211;SDS011;5663;50.864;12.096;2023-06-04T12:27:47;2.20;;;1.60;;
11211;SDS011;5663;50.864;12.096;2023-06-04T12:30:36;2.35;;;1.50;;
11211;SDS011;5663;50.864;12.096;2023-06-04T12:33:16;5.40;;;1.75;;
11211;SDS011;5663;50.864;12.096;2023-06-04T12:36:03;2.78;;;1.63;;
11211;SDS011;5663;50.864;12.096;2023-06-04T12:38:50;1.80;;;1.40;;
11211;SDS011;5663;50.864;12.096;2023-06-04T12:41:30;2.05;;;1.70;;
11211;SDS011;5663;50.864;12.096;2023-06-04T12:44:09;2.30;;;1.70;;
11211;SDS011;5663;50.864;12.096;2023-06-04T12:46:57;2.95;;;1.70;;
11211;SDS011;5663;50.864;12.096;2023-06-04T12:52:31;4.30;;;1.52;;
11211;SDS011;5663;50.864;12.096;2023-06-04T12:55:10;1.85;;;1.50;;
11211;SDS011;5663;50.864;12.096;2023-06-04T12:57:52;3.53;;;1.55;;
11211;SDS011;5663;50.864;12.096;2023-06-04T13:04:08;3.25;;;1.48;;
11211;SDS011;5663;50.864;12.096;2023-06-04T13:06:56;4.10;;;1.48;;
11211;SDS011;5663;50.864;12.096;2023-06-04T13:09:40;2.42;;;1.63;;
11211;SDS011;5663;50.864;12.096;2023-06-04T13:12:17;1.65;;;1.40;;
11211;SDS011;5663;50.864;12.096;2023-06-04T13:15:11;2.40;;;1.60;;
11211;SDS011;5663;50.864;12.096;2023-06-04T13:17:58;1.70;;;1.50;;
11211;SDS011;5663;50.864;12.096;2023-06-04T13:20:40;1.60;;;1.50;;
11211;SDS011;5663;50.864;12.096;2023-06-04T13:23:18;2.42;;;1.77;;
11211;SDS011;5663;50.864;12.096;2023-06-04T13:26:19;1.80;;;1.70;;
11211;SDS011;5663;50.864;12.096;2023-06-04T13:29:01;3.35;;;2.20;;
11211;SDS011;5663;50.864;12.096;2023-06-04T13:31:49;1.92;;;1.40;;
11211;SDS011;5663;50.864;12.096;2023-06-04T13:34:37;1.52;;;1.40;;
11211;SDS011;5663;50.864;12.096;2023-06-04T13:37:24;1.75;;;1.40;;
11211;SDS011;5663;50.864;12.096;2023-06-04T13:40:19;2.05;;;1.40;;
11211;SDS011;5663;50.864;12.096;2023-06-04T13:53:52;1.67;;;1.48;;
11211;SDS011;5663;50.864;12.096;2023-06-04T13:56:29;3.42;;;1.65;;
11211;SDS011;5663;50.864;12.096;2023-06-04T13:59:13;1.90;;;1.70;;
11211;SDS011;5663;50.864;12.096;2023-06-04T14:01:44;2.30;;;1.70;;
11211;SDS011;5663;50.864;12.096;2023-06-04T14:04:16;2.38;;;1.67;;
11211;SDS011;5663;50.864;12.096;2023-06-04T14:07:06;3.63;;;1.65;;
11211;SDS011;5663;50.864;12.096;2023-06-04T14:10:19;1.77;;;1.50;;
11211;SDS011;5663;50.864;12.096;2023-06-04T14:13:11;2.25;;;1.65;;
11211;SDS011;5663;50.864;12.096;2023-06-04T14:15:55;2.13;;;1.70;;
11211;SDS011;5663;50.864;12.096;2023-06-04T14:19:00;4.20;;;1.52;;
11211;SDS011;5663;50.864;12.096;2023-06-04T14:21:39;3.97;;;1.45;;
11211;SDS011;5663;50.864;12.096;2023-06-04T14:24:47;1.90;;;1.58;;
11211;SDS011;5663;50.864;12.096;2023-06-04T14:27:31;1.98;;;1.60;;
11211;SDS011;5663;50.864;12.096;2023-06-04T14:30:13;1.63;;;1.50;;
11211;SDS011;5663;50.864;12.096;2023-06-04T14:32:54;4.93;;;1.52;;
11211;SDS011;5663;50.864;12.096;2023-06-04T14:35:34;2.33;;;1.70;;
11211;SDS011;5663;50.864;12.096;2023-06-04T14:38:14;4.45;;;1.70;;
11211;SDS011;5663;50.864;12.096;2023-06-04T14:40:50;2.40;;;1.70;;
11211;SDS011;5663;50.864;12.096;2023-06-04T14:43:33;2.63;;;1.33;;
11211;SDS011;5663;50.864;12.096;2023-06-04T14:46:24;2.13;;;1.52;;
11211;SDS011;5663;50.864;12.096;2023-06-04T14:49:08;2.05;;;1.60;;
11211;SDS011;5663;50.864;12.096;2023-06-04T14:51:58;3.55;;;1.48;;
11211;SDS011;5663;50.864;12.096;2023-06-04T14:54:30;5.80;;;1.65;;
11211;SDS011;5663;50.864;12.096;2023-06-04T14:57:20;2.92;;;1.50;;
11211;SDS011;5663;50.864;12.096;2023-06-04T14:59:58;2.75;;;1.83;;
11211;SDS011;5663;50.864;12.096;2023-06-04T15:02:38;2.10;;;1.60;;
11211;SDS011;5663;50.864;12.096;2023-06-04T15:05:20;2.17;;;1.40;;
11211;SDS011;5663;50.864;12.096;2023-06-04T15:07:54;1.75;;;1.65;;
11211;SDS011;5663;50.864;12.096;2023-06-04T15:10:28;2.47;;;1.60;;
11211;SDS011;5663;50.864;12.096;2023-06-04T15:13:02;2.13;;;1.92;;
11211;SDS011;5663;50.864;12.096;2023-06-04T15:15:43;2.55;;;1.60;;
11211;SDS011;5663;50.864;12.096;2023-06-04T15:18:22;1.45;;;1.35;;
11211;SDS011;5663;50.864;12.096;2023-06-04T15:21:04;14.27;;;2.70;;
11211;SDS011;5663;50.864;12.096;2023-06-04T15:23:42;3.45;;;1.70;;
11211;SDS011;5663;50.864;12.096;2023-06-04T15:26:23;2.08;;;1.52;;
11211;SDS011;5663;50.864;12.096;2023-06-04T15:29:08;2.17;;;1.60;;
11211;SDS011;5663;50.864;12.096;2023-06-04T15:31:48;2.88;;;1.60;;
11211;SDS011;5663;50.864;12.096;2023-06-04T15:34:22;2.70;;;1.70;;
11211;SDS011;5663;50.864;12.096;2023-06-04T15:36:59;3.08;;;1.58;;
11211;SDS011;5663;50.864;12.096;2023-06-04T15:39:28;3.40;;;1.67;;
11211;SDS011;5663;50.864;12.096;2023-06-04T15:42:11;5.13;;;1.83;;
11211;SDS011;5663;50.864;12.096;2023-06-04T15:44:57;3.58;;;1.80;;
11211;SDS011;5663;50.864;12.096;2023-06-04T15:47:42;3.28;;;1.40;;
11211;SDS011;5663;50.864;12.096;2023-06-04T15:50:20;3.75;;;1.77;;
11211;SDS011;5663;50.864;12.096;2023-06-04T15:53:00;1.70;;;1.52;;
11211;SDS011;5663;50.864;12.096;2023-06-04T15:55:38;2.55;;;1.48;;
11211;SDS011;5663;50.864;12.096;2023-06-04T15:58:25;5.38;;;1.70;;
11211;SDS011;5663;50.864;12.096;2023-06-04T16:00:58;2.42;;;1.60;;
11211;SDS011;5663;50.864;12.096;2023-06-04T16:03:46;1.70;;;1.60;;
11211;SDS011;5663;50.864;12.096;2023-06-04T16:06:30;1.92;;;1.60;;
11211;SDS011;5663;50.864;12.096;2023-06-04T16:09:11;3.42;;;1.63;;
11211;SDS011;5663;50.864;12.096;2023-06-04T16:11:52;1.55;;;1.30;;
11211;SDS011;5663;50.864;12.096;2023-06-04T16:14:34;2.53;;;1.50;;
11211;SDS011;5663;50.864;12.096;2023-06-04T16:17:15;2.88;;;1.80;;
11211;SDS011;5663;50.864;12.096;2023-06-04T16:19:54;1.90;;;1.60;;
11211;SDS011;5663;50.864;12.096;2023-06-04T16:22:27;3.03;;;1.48;;
11211;SDS011;5663;50.864;12.096;2023-06-04T16:25:12;1.80;;;1.60;;
11211;SDS011;5663;50.864;12.096;2023-06-04T16:27:55;3.65;;;1.70;;
11211;SDS011;5663;50.864;12.096;2023-06-04T16:30:38;1.90;;;1.70;;
11211;SDS011;5663;50.864;12.096;2023-06-04T16:33:21;3.67;;;2.03;;
11211;SDS011;5663;50.864;12.096;2023-06-04T16:35:49;2.88;;;1.70;;
11211;SDS011;5663;50.864;12.096;2023-06-04T16:38:20;1.73;;;1.63;;
11211;SDS011;5663;50.864;12.096;2023-06-04T16:40:53;3.38;;;1.60;;
11211;SDS011;5663;50.864;12.096;2023-06-04T16:43:33;1.88;;;1.67;;
11211;SDS011;5663;50.864;12.096;2023-06-04T16:46:02;2.70;;;1.70;;
11211;SDS011;5663;50.864;12.096;2023-06-04T16:48:39;1.90;;;1.60;;
11211;SDS011;5663;50.864;12.096;2023-06-04T16:51:09;1.60;;;1.50;;
11211;SDS011;5663;50.864;12.096;2023-06-04T16:53:51;2.45;;;1.60;;
11211;SDS011;5663;50.864;12.096;2023-06-04T16:56:22;2.22;;;1.70;;